createdAt,value
2018-01-11T00:02:17.296Z,20.10
2018-01-11T00:04:44.744Z,17.00
2018-01-11T00:07:12.180Z,17.37
2018-01-11T00:09:39.640Z,17.33
2018-01-11T00:12:07.136Z,16.33
2018-01-11T00:14:34.612Z,14.95
2018-01-11T00:17:02.041Z,14.98
2018-01-11T00:19:29.488Z,16.55
2018-01-11T00:21:56.924Z,18.30
2018-01-11T00:24:24.428Z,18.40
2018-01-11T00:26:51.864Z,24.30
2018-01-11T00:29:19.300Z,16.90
2018-01-11T00:31:46.741Z,18.40
2018-01-11T00:34:14.200Z,24.27
2018-01-11T00:36:41.660Z,23.42
2018-01-11T00:39:09.109Z,24.50
2018-01-11T00:41:36.553Z,15.90
2018-01-11T00:44:04.030Z,20.33
2018-01-11T00:46:31.536Z,18.73
2018-01-11T00:48:58.984Z,19.48
2018-01-11T00:51:26.483Z,27.52
2018-01-11T00:53:53.892Z,20.37
2018-01-11T00:56:21.339Z,27.48
2018-01-11T00:58:48.788Z,28.90
2018-01-11T01:01:16.236Z,18.30
2018-01-11T01:03:43.686Z,19.30
2018-01-11T01:06:11.141Z,19.40
2018-01-11T01:08:38.634Z,18.37
2018-01-11T01:11:06.064Z,17.83
2018-01-11T01:13:33.499Z,18.00
2018-01-11T01:16:00.965Z,19.73
2018-01-11T01:18:28.399Z,18.05
2018-01-11T01:20:55.866Z,18.77
2018-01-11T01:23:23.308Z,19.40
2018-01-11T01:25:50.768Z,17.55
2018-01-11T01:28:18.228Z,19.53
2018-01-11T01:30:45.756Z,17.87
2018-01-11T01:33:13.205Z,17.77
2018-01-11T01:35:40.661Z,17.12
2018-01-11T01:38:08.175Z,16.30
2018-01-11T01:40:35.636Z,15.57
2018-01-11T01:43:03.084Z,15.70
2018-01-11T01:45:30.543Z,15.57
2018-01-11T01:47:57.980Z,15.98
2018-01-11T01:50:25.422Z,14.23
2018-01-11T01:52:52.868Z,14.73
2018-01-11T01:55:21.080Z,11.85
2018-01-11T01:57:48.764Z,16.65
2018-01-11T02:00:16.216Z,12.95
2018-01-11T02:02:43.660Z,11.95
2018-01-11T02:05:11.126Z,10.98
2018-01-11T02:07:38.565Z,10.90
2018-01-11T02:10:06.017Z,14.20
2018-01-11T02:12:33.469Z,9.90
2018-01-11T02:15:00.936Z,11.70
2018-01-11T02:17:28.368Z,10.48
2018-01-11T02:19:55.792Z,10.52
2018-01-11T02:22:23.283Z,10.63
2018-01-11T02:24:50.733Z,14.23
2018-01-11T02:27:18.964Z,11.02
2018-01-11T02:29:46.413Z,9.50
2018-01-11T02:32:13.863Z,9.80
2018-01-11T02:34:41.336Z,11.73
2018-01-11T02:37:08.941Z,10.07
2018-01-11T02:39:36.365Z,10.17
2018-01-11T02:42:03.812Z,10.75
2018-01-11T02:44:31.250Z,14.95
2018-01-11T02:46:58.709Z,14.82
2018-01-11T02:49:26.166Z,9.43
2018-01-11T02:51:53.616Z,10.85
2018-01-11T02:54:21.057Z,9.55
2018-01-11T02:56:48.500Z,9.10
2018-01-11T02:59:16.709Z,8.07
2018-01-11T03:01:44.136Z,9.13
2018-01-11T03:04:11.584Z,9.23
2018-01-11T03:06:39.028Z,8.40
2018-01-11T03:09:06.472Z,8.20
2018-01-11T03:11:33.924Z,12.32
2018-01-11T03:14:01.368Z,8.52
2018-01-11T03:16:28.806Z,11.07
2018-01-11T03:18:56.265Z,8.55
2018-01-11T03:21:23.787Z,11.02
2018-01-11T03:23:51.228Z,11.68
2018-01-11T03:26:18.674Z,13.40
2018-01-11T03:28:46.126Z,14.40
2018-01-11T03:31:13.570Z,14.90
2018-01-11T03:33:41.012Z,14.13
2018-01-11T03:36:08.463Z,14.85
2018-01-11T03:38:35.929Z,15.10
2018-01-11T03:41:03.385Z,14.30
2018-01-11T03:43:30.887Z,13.45
2018-01-11T03:45:58.342Z,14.10
2018-01-11T03:48:25.780Z,14.20
2018-01-11T03:50:53.231Z,14.13
2018-01-11T03:53:20.679Z,14.38
2018-01-11T03:55:48.133Z,15.23
2018-01-11T03:58:15.689Z,16.17
2018-01-11T04:00:43.142Z,13.77
2018-01-11T04:03:10.582Z,13.60
2018-01-11T04:05:38.036Z,13.95
2018-01-11T04:08:05.509Z,15.15
2018-01-11T04:10:32.961Z,13.60
2018-01-11T04:13:00.404Z,13.90
2018-01-11T04:15:27.847Z,13.60
2018-01-11T04:17:55.295Z,18.35
2018-01-11T04:20:22.752Z,13.90
2018-01-11T04:22:50.962Z,15.67
2018-01-11T04:25:18.404Z,14.68
2018-01-11T04:27:46.040Z,14.93
2018-01-11T04:30:13.492Z,12.98
2018-01-11T04:32:40.926Z,15.15
2018-01-11T04:35:08.376Z,13.98
2018-01-11T04:37:35.811Z,14.20
2018-01-11T04:40:03.389Z,14.70
2018-01-11T04:42:30.858Z,13.62
2018-01-11T04:44:58.316Z,15.35
2018-01-11T04:47:25.770Z,14.57
2018-01-11T04:49:53.512Z,14.97
2018-01-11T04:52:20.952Z,15.80
2018-01-11T04:54:48.407Z,14.60
2018-01-11T04:57:15.844Z,13.05
2018-01-11T04:59:43.292Z,13.20
2018-01-11T05:02:10.725Z,12.93
2018-01-11T05:04:38.172Z,12.70
2018-01-11T05:07:05.629Z,12.82
2018-01-11T05:09:33.080Z,11.68
2018-01-11T05:12:00.580Z,11.85
2018-01-11T05:14:28.017Z,11.32
2018-01-11T05:16:55.467Z,13.25
2018-01-11T05:19:22.940Z,13.27
2018-01-11T05:21:50.375Z,12.18
2018-01-11T05:24:17.831Z,12.95
2018-01-11T05:26:45.277Z,11.85
2018-01-11T05:29:12.736Z,12.90
2018-01-11T05:31:40.176Z,11.73
2018-01-11T05:34:07.712Z,11.55
2018-01-11T05:36:35.166Z,11.63
2018-01-11T05:39:02.620Z,11.13
2018-01-11T05:41:30.056Z,12.60
2018-01-11T05:43:57.515Z,12.32
2018-01-11T05:46:24.969Z,10.83
2018-01-11T05:48:52.419Z,11.88
2018-01-11T05:51:19.861Z,10.90
2018-01-11T05:53:47.317Z,12.00
2018-01-11T05:56:14.836Z,11.75
2018-01-11T05:58:42.306Z,12.60
2018-01-11T06:01:09.749Z,10.45
2018-01-11T06:03:37.194Z,12.87
2018-01-11T06:06:04.647Z,13.10
2018-01-11T06:08:32.092Z,16.80
2018-01-11T06:10:59.544Z,14.70
2018-01-11T06:13:26.971Z,11.20
2018-01-11T06:15:54.436Z,14.55
2018-01-11T06:18:21.924Z,14.38
2018-01-11T06:20:50.145Z,10.85
2018-01-11T06:23:17.593Z,10.95
2018-01-11T06:25:45.192Z,11.98
2018-01-11T06:28:12.644Z,11.65
2018-01-11T06:30:40.112Z,11.43
2018-01-11T06:33:07.545Z,10.73
2018-01-11T06:35:35.029Z,10.90
2018-01-11T06:38:02.478Z,13.50
2018-01-11T06:40:29.960Z,10.80
2018-01-11T06:42:57.400Z,10.73
2018-01-11T06:45:25.624Z,12.20
2018-01-11T06:47:53.089Z,9.90
2018-01-11T06:50:20.516Z,14.38
2018-01-11T06:52:47.972Z,12.23
2018-01-11T06:55:15.404Z,10.80
2018-01-11T06:57:42.844Z,11.17
2018-01-11T07:00:10.321Z,10.47
2018-01-11T07:02:37.772Z,11.30
2018-01-11T07:05:05.199Z,11.17
2018-01-11T07:07:32.640Z,10.10
2018-01-11T07:10:00.075Z,10.20
2018-01-11T07:12:27.520Z,10.53
2018-01-11T07:14:55.025Z,11.90
2018-01-11T07:17:22.470Z,11.23
2018-01-11T07:19:49.911Z,9.60
2018-01-11T07:22:17.372Z,11.67
2018-01-11T07:24:44.955Z,10.83
2018-01-11T07:27:12.389Z,9.40
2018-01-11T07:29:39.848Z,11.00
2018-01-11T07:32:07.300Z,11.77
2018-01-11T07:34:34.736Z,11.40
2018-01-11T07:37:02.965Z,12.37
2018-01-11T07:39:30.434Z,11.60
2018-01-11T07:41:57.880Z,12.53
2018-01-11T07:44:25.325Z,11.40
2018-01-11T07:46:52.865Z,12.90
2018-01-11T07:49:20.303Z,11.63
2018-01-11T07:51:48.524Z,10.33
2018-01-11T07:54:15.966Z,11.43
2018-01-11T07:56:43.415Z,10.33
2018-01-11T07:59:10.958Z,10.80
2018-01-11T08:01:39.311Z,10.73
2018-01-11T08:04:07.033Z,9.40
2018-01-11T08:06:34.616Z,11.77
2018-01-11T08:09:02.283Z,11.23
2018-01-11T08:11:30.739Z,12.40
2018-01-11T08:13:58.824Z,11.90
2018-01-11T08:16:26.401Z,11.77
2018-01-11T08:18:54.004Z,12.10
2018-01-11T08:21:22.543Z,12.13
2018-01-11T08:23:50.118Z,11.37
2018-01-11T08:26:17.682Z,12.00
2018-01-11T08:28:45.322Z,11.70
2018-01-11T08:31:12.903Z,10.60
2018-01-11T08:33:40.442Z,11.60
2018-01-11T08:36:08.033Z,12.83
2018-01-11T08:38:36.352Z,12.07
2018-01-11T08:41:03.935Z,12.87
2018-01-11T08:43:31.510Z,13.67
2018-01-11T08:45:59.068Z,12.17
2018-01-11T08:48:26.688Z,12.70
2018-01-11T08:50:54.257Z,14.40
2018-01-11T08:53:21.861Z,13.37
2018-01-11T08:55:49.461Z,12.60
2018-01-11T08:58:17.800Z,13.80
2018-01-11T09:00:45.398Z,14.07
2018-01-11T09:03:12.991Z,13.73
2018-01-11T09:05:40.572Z,13.67
2018-01-11T09:08:08.166Z,13.80
2018-01-11T09:10:35.858Z,13.37
2018-01-11T09:13:03.531Z,16.07
2018-01-11T09:15:31.089Z,14.87
2018-01-11T09:17:58.702Z,14.80
2018-01-11T09:20:27.021Z,16.47
2018-01-11T09:22:54.594Z,14.20
2018-01-11T09:25:22.208Z,12.50
2018-01-11T09:27:49.814Z,11.77
2018-01-11T09:30:17.360Z,10.67
2018-01-11T09:32:45.122Z,13.00
2018-01-11T09:35:12.812Z,12.07
2018-01-11T09:37:40.386Z,12.50
2018-01-11T09:40:07.963Z,12.03
2018-01-11T09:42:36.484Z,12.37
2018-01-11T09:45:04.074Z,12.20
2018-01-11T09:47:31.671Z,13.57
2018-01-11T09:50:00.111Z,11.70
2018-01-11T09:52:27.847Z,12.70
2018-01-11T09:54:55.435Z,11.63
2018-01-11T09:57:23.044Z,12.07
2018-01-11T09:59:50.655Z,12.27
2018-01-11T10:02:18.219Z,11.70
2018-01-11T10:04:45.818Z,10.70
2018-01-11T10:07:13.424Z,12.60
2018-01-11T10:09:41.022Z,12.80
2018-01-11T10:12:08.631Z,12.43
2018-01-11T10:14:36.191Z,12.50
2018-01-11T10:17:03.859Z,12.07
2018-01-11T10:19:31.641Z,12.47
2018-01-11T10:21:59.186Z,13.57
2018-01-11T10:24:26.774Z,15.10
2018-01-11T10:26:54.375Z,14.80
2018-01-11T10:29:21.918Z,13.20
2018-01-11T10:31:49.524Z,13.50
2018-01-11T10:34:17.115Z,16.20
2018-01-11T10:36:44.671Z,17.53
2018-01-11T10:39:12.279Z,17.50
2018-01-11T10:41:39.953Z,18.73
2018-01-11T10:44:07.523Z,17.67
2018-01-11T10:46:35.110Z,19.20
2018-01-11T10:49:02.703Z,18.40
2018-01-11T10:51:30.283Z,21.07
2018-01-11T10:53:57.949Z,17.57
2018-01-11T10:56:25.528Z,24.20
2018-01-11T10:58:53.163Z,19.43
2018-01-11T11:01:26.308Z,17.70
2018-01-11T11:03:53.859Z,18.50
2018-01-11T11:06:21.486Z,20.57
2018-01-11T11:08:49.076Z,19.93
2018-01-11T11:11:16.666Z,20.80
2018-01-11T11:13:44.231Z,17.37
2018-01-11T11:16:11.849Z,20.77
2018-01-11T11:18:39.407Z,23.10
2018-01-11T11:21:07.053Z,19.30
2018-01-11T11:23:34.817Z,17.97
2018-01-11T11:26:02.510Z,16.40
2018-01-11T11:28:30.074Z,17.10
2018-01-11T11:30:57.762Z,18.03
2018-01-11T11:33:26.098Z,20.83
2018-01-11T11:35:53.641Z,19.07
2018-01-11T11:38:21.272Z,17.07
2018-01-11T11:40:48.899Z,20.07
2018-01-11T11:43:16.488Z,17.37
2018-01-11T11:45:44.390Z,18.10
2018-01-11T11:48:12.095Z,21.10
2018-01-11T11:50:39.638Z,18.63
2018-01-11T11:53:07.219Z,21.60
2018-01-11T11:55:34.794Z,21.30
2018-01-11T11:58:03.163Z,20.10
2018-01-11T12:00:31.504Z,23.13
2018-01-11T12:02:59.083Z,19.40
2018-01-11T12:05:26.682Z,24.87
2018-01-11T12:07:54.379Z,23.50
2018-01-11T12:10:21.959Z,24.43
2018-01-11T12:12:49.566Z,23.87
2018-01-11T12:15:17.256Z,22.37
2018-01-11T12:17:44.851Z,23.10
2018-01-11T12:20:12.475Z,21.23
2018-01-11T12:22:40.240Z,20.60
2018-01-11T12:25:07.843Z,23.37
2018-01-11T12:27:35.407Z,19.23
2018-01-11T12:30:02.987Z,20.47
2018-01-11T12:32:30.680Z,22.13
2018-01-11T12:34:58.262Z,21.30
2018-01-11T12:37:25.867Z,21.13
2018-01-11T12:39:53.630Z,21.97
2018-01-11T12:42:21.195Z,20.80
2018-01-11T12:44:49.502Z,20.60
2018-01-11T12:47:17.084Z,19.17
2018-01-11T12:49:44.634Z,17.90
2018-01-11T12:52:12.400Z,18.80
2018-01-11T12:54:40.086Z,16.30
2018-01-11T12:57:07.708Z,18.23
2018-01-11T12:59:35.266Z,16.40
2018-01-11T13:02:02.863Z,14.87
2018-01-11T13:04:31.211Z,15.30
2018-01-11T13:07:00.920Z,15.00
2018-01-11T13:09:28.679Z,15.23
2018-01-11T13:11:57.118Z,14.50
2018-01-11T13:14:24.718Z,15.40
2018-01-11T13:16:52.328Z,15.60
2018-01-11T13:19:19.866Z,15.40
2018-01-11T13:21:47.501Z,13.90
2018-01-11T13:24:15.074Z,14.97
2018-01-11T13:26:42.656Z,14.30
2018-01-11T13:29:10.203Z,15.57
2018-01-11T13:31:37.799Z,16.10
2018-01-11T13:34:06.165Z,15.50
2018-01-11T13:36:33.773Z,16.30
2018-01-11T13:39:01.370Z,15.30
2018-01-11T13:41:28.984Z,15.50
2018-01-11T13:43:56.534Z,15.10
2018-01-11T13:46:24.115Z,14.77
2018-01-11T13:48:51.687Z,14.83
2018-01-11T13:51:19.233Z,15.87
2018-01-11T13:53:46.837Z,17.80
2018-01-11T13:56:14.394Z,14.90
2018-01-11T13:58:42.934Z,15.13
2018-01-11T14:01:10.504Z,15.53
2018-01-11T14:03:38.088Z,18.53
2018-01-11T14:06:05.690Z,17.33
2018-01-11T14:08:33.280Z,16.17
2018-01-11T14:11:00.833Z,15.50
2018-01-11T14:13:28.424Z,16.17
2018-01-11T14:15:56.016Z,13.60
2018-01-11T14:18:24.359Z,14.83
2018-01-11T14:20:51.949Z,14.00
2018-01-11T14:23:19.506Z,13.90
2018-01-11T14:25:47.083Z,13.67
2018-01-11T14:28:14.739Z,15.00
2018-01-11T14:30:42.291Z,12.37
2018-01-11T14:33:09.866Z,13.23
2018-01-11T14:35:38.186Z,12.23
2018-01-11T14:38:05.768Z,12.43
2018-01-11T14:40:33.497Z,11.60
2018-01-11T14:43:01.208Z,12.00
2018-01-11T14:45:28.766Z,11.60
2018-01-11T14:47:56.334Z,11.17
2018-01-11T14:50:24.715Z,12.23
2018-01-11T14:52:53.034Z,12.60
2018-01-11T14:55:20.628Z,14.30
2018-01-11T14:57:48.695Z,13.47
2018-01-11T15:00:16.270Z,11.87
2018-01-11T15:02:43.884Z,12.37
2018-01-11T15:05:11.678Z,11.57
2018-01-11T15:07:39.460Z,11.43
2018-01-11T15:10:07.100Z,11.33
2018-01-11T15:12:34.663Z,11.37
2018-01-11T15:15:02.255Z,11.30
2018-01-11T15:17:29.963Z,11.67
2018-01-11T15:19:57.559Z,11.60
2018-01-11T15:22:25.115Z,11.43
2018-01-11T15:24:52.947Z,14.90
2018-01-11T15:27:20.608Z,12.40
2018-01-11T15:29:48.207Z,15.80
2018-01-11T15:32:15.808Z,14.80
2018-01-11T15:34:43.361Z,14.57
2018-01-11T15:37:11.032Z,12.80
2018-01-11T15:39:38.584Z,12.43
2018-01-11T15:42:06.187Z,10.87
2018-01-11T15:44:33.774Z,12.47
2018-01-11T15:47:01.320Z,11.43
2018-01-11T15:49:28.971Z,13.27
2018-01-11T15:51:56.757Z,12.83
2018-01-11T15:54:24.325Z,12.70
2018-01-11T15:56:51.871Z,12.07
2018-01-11T15:59:19.496Z,12.40
2018-01-11T16:01:47.061Z,12.90
2018-01-11T16:04:14.643Z,11.53
2018-01-11T16:06:42.187Z,13.03
2018-01-11T16:09:09.760Z,13.10
2018-01-11T16:11:37.337Z,14.80
2018-01-11T16:14:04.903Z,13.03
2018-01-11T16:16:32.476Z,14.73
2018-01-11T16:19:00.078Z,15.57
2018-01-11T16:21:27.632Z,14.10
2018-01-11T16:23:55.303Z,18.30
2018-01-11T16:26:22.887Z,14.43
2018-01-11T16:28:50.466Z,20.47
2018-01-11T16:31:18.051Z,15.63
2018-01-11T16:33:45.633Z,16.27
2018-01-11T16:36:13.212Z,24.47
2018-01-11T16:38:40.757Z,22.53
2018-01-11T16:41:08.355Z,17.20
2018-01-11T16:43:35.899Z,18.57
2018-01-11T16:46:03.540Z,18.80
2018-01-11T16:48:31.313Z,16.80
2018-01-11T16:50:58.899Z,16.80
2018-01-11T16:53:26.509Z,17.57
2018-01-11T16:55:54.101Z,18.23
2018-01-11T16:58:21.685Z,18.83
2018-01-11T17:00:49.217Z,28.87
2018-01-11T17:03:16.892Z,25.33
2018-01-11T17:05:44.477Z,25.50
2018-01-11T17:08:12.791Z,21.73
2018-01-11T17:10:40.374Z,17.87
2018-01-11T17:13:07.975Z,19.73
2018-01-11T17:15:36.434Z,21.73
2018-01-11T17:18:03.987Z,20.67
2018-01-11T17:20:31.760Z,21.20
2018-01-11T17:22:59.315Z,20.57
2018-01-11T17:25:26.907Z,23.37
2018-01-11T17:27:55.243Z,21.50
2018-01-11T17:30:22.822Z,20.70
2018-01-11T17:32:50.430Z,22.57
2018-01-11T17:35:18.024Z,31.13
2018-01-11T17:37:46.104Z,21.60
2018-01-11T17:40:13.695Z,31.60
2018-01-11T17:42:41.285Z,22.20
2018-01-11T17:45:08.825Z,22.47
2018-01-11T17:47:36.411Z,20.87
2018-01-11T17:50:04.279Z,22.30
2018-01-11T17:52:31.818Z,19.93
2018-01-11T17:54:59.395Z,21.47
2018-01-11T17:57:27.188Z,21.43
2018-01-11T17:59:54.980Z,22.23
2018-01-11T18:02:23.304Z,22.80
2018-01-11T18:04:50.872Z,20.43
2018-01-11T18:07:18.317Z,22.90
2018-01-11T18:09:45.762Z,19.60
2018-01-11T18:12:13.210Z,22.73
2018-01-11T18:14:40.656Z,23.33
2018-01-11T18:17:08.100Z,21.70
2018-01-11T18:19:36.321Z,22.60
2018-01-11T18:22:03.768Z,22.13
2018-01-11T18:24:31.430Z,22.33
2018-01-11T18:26:58.851Z,24.57
2018-01-11T18:29:27.092Z,22.43
2018-01-11T18:31:54.536Z,22.60
2018-01-11T18:34:21.987Z,24.67
2018-01-11T18:36:49.421Z,23.67
2018-01-11T18:39:16.888Z,23.20
2018-01-11T18:41:44.560Z,23.63
2018-01-11T18:44:12.251Z,23.77
2018-01-11T18:46:39.830Z,23.73
2018-01-11T18:49:07.370Z,23.70
2018-01-11T18:51:34.951Z,22.77
2018-01-11T18:54:02.536Z,23.43
2018-01-11T18:56:30.043Z,23.13
2018-01-11T18:58:57.544Z,23.50
2018-01-11T19:01:24.993Z,22.93
2018-01-11T19:03:53.222Z,23.07
2018-01-11T19:06:20.749Z,24.70
2018-01-11T19:08:48.212Z,26.37
2018-01-11T19:11:15.690Z,23.33
2018-01-11T19:13:43.119Z,23.47
2018-01-11T19:16:10.576Z,23.43
2018-01-11T19:18:38.040Z,23.70
2018-01-11T19:21:05.467Z,24.23
2018-01-11T19:23:32.906Z,22.27
2018-01-11T19:26:00.337Z,25.23
2018-01-11T19:28:27.853Z,24.30
2018-01-11T19:30:55.280Z,35.83
2018-01-11T19:33:22.736Z,25.87
2018-01-11T19:35:50.176Z,37.07
2018-01-11T19:38:17.761Z,23.97
2018-01-11T19:40:45.208Z,23.30
2018-01-11T19:43:12.648Z,23.63
2018-01-11T19:45:40.104Z,24.70
2018-01-11T19:48:07.554Z,23.80
2018-01-11T19:50:34.983Z,38.20
2018-01-11T19:53:02.424Z,36.80
2018-01-11T19:55:29.870Z,37.23
2018-01-11T19:57:57.306Z,39.80
2018-01-11T20:00:24.756Z,39.10
2018-01-11T20:02:52.216Z,27.90
2018-01-11T20:05:19.640Z,29.17
2018-01-11T20:07:47.107Z,40.60
2018-01-11T20:10:14.548Z,25.03
2018-01-11T20:12:42.068Z,26.13
2018-01-11T20:15:09.517Z,26.50
2018-01-11T20:17:36.973Z,26.97
2018-01-11T20:20:04.420Z,29.00
2018-01-11T20:22:31.872Z,24.60
2018-01-11T20:24:59.329Z,28.03
2018-01-11T20:27:26.773Z,25.80
2018-01-11T20:29:54.220Z,25.00
2018-01-11T20:32:21.661Z,25.80
2018-01-11T20:34:49.135Z,25.50
2018-01-11T20:37:16.553Z,27.00
2018-01-11T20:39:44.014Z,26.03
2018-01-11T20:42:11.464Z,26.83
2018-01-11T20:44:38.934Z,26.80
2018-01-11T20:47:06.384Z,24.17
2018-01-11T20:49:33.815Z,26.80
2018-01-11T20:52:02.231Z,26.93
2018-01-11T20:54:29.665Z,23.87
2018-01-11T20:56:57.248Z,25.07
2018-01-11T20:59:24.683Z,24.80
2018-01-11T21:01:52.350Z,23.33
2018-01-11T21:04:20.536Z,26.27
2018-01-11T21:06:47.972Z,23.30
2018-01-11T21:09:15.412Z,25.37
2018-01-11T21:11:42.870Z,23.90
2018-01-11T21:14:11.067Z,23.30
2018-01-11T21:16:38.517Z,21.07
2018-01-11T21:19:06.180Z,21.60
2018-01-11T21:21:33.612Z,23.73
2018-01-11T21:24:01.066Z,22.70
2018-01-11T21:26:28.503Z,23.00
2018-01-11T21:28:55.960Z,24.17
2018-01-11T21:31:23.399Z,22.37
2018-01-11T21:33:50.865Z,22.53
2018-01-11T21:36:18.308Z,22.10
2018-01-11T21:38:45.768Z,24.57
2018-01-11T21:41:13.277Z,25.03
2018-01-11T21:43:40.724Z,24.53
2018-01-11T21:46:08.926Z,23.93
2018-01-11T21:48:36.385Z,35.97
2018-01-11T21:51:03.853Z,23.40
2018-01-11T21:53:31.291Z,23.03
2018-01-11T21:55:58.749Z,22.17
2018-01-11T21:58:26.194Z,33.78
2018-01-11T22:00:53.636Z,22.53
2018-01-11T22:03:21.072Z,23.57
2018-01-11T22:05:48.845Z,38.60
2018-01-11T22:08:16.311Z,20.20
2018-01-11T22:10:43.752Z,20.13
2018-01-11T22:13:11.213Z,30.63
2018-01-11T22:15:38.682Z,32.00
2018-01-11T22:18:06.137Z,22.13
2018-01-11T22:20:33.628Z,21.20
2018-01-11T22:23:01.051Z,20.00
2018-01-11T22:25:28.496Z,18.77
2018-01-11T22:27:55.939Z,34.50
2018-01-11T22:30:23.400Z,20.80
2018-01-11T22:32:50.862Z,35.67
2018-01-11T22:35:18.313Z,29.53
2018-01-11T22:37:45.798Z,20.03
2018-01-11T22:40:13.240Z,26.70
2018-01-11T22:42:40.701Z,18.23
2018-01-11T22:45:08.152Z,15.40
2018-01-11T22:47:35.608Z,27.13
2018-01-11T22:50:03.041Z,28.03
2018-01-11T22:52:30.513Z,27.90
2018-01-11T22:54:57.953Z,26.37
2018-01-11T22:57:25.397Z,29.30
2018-01-11T22:59:52.860Z,18.05
2018-01-11T23:02:20.293Z,23.95
2018-01-11T23:04:47.759Z,19.43
2018-01-11T23:07:15.184Z,21.00
2018-01-11T23:09:42.669Z,18.00
2018-01-11T23:12:10.117Z,17.17
2018-01-11T23:14:37.582Z,19.10
2018-01-11T23:17:05.025Z,20.57
2018-01-11T23:19:32.449Z,17.93
2018-01-11T23:21:59.904Z,27.80
2018-01-11T23:24:27.349Z,18.00
2018-01-11T23:26:54.808Z,17.90
2018-01-11T23:29:22.245Z,18.73
2018-01-11T23:31:49.780Z,17.17
2018-01-11T23:34:17.240Z,17.83
2018-01-11T23:36:44.672Z,18.87
2018-01-11T23:39:12.118Z,26.40
2018-01-11T23:41:39.580Z,26.97
2018-01-11T23:44:07.072Z,16.73
2018-01-11T23:46:34.516Z,17.47
2018-01-11T23:49:02.844Z,18.17
2018-01-11T23:51:30.299Z,15.43
2018-01-11T23:53:57.820Z,16.60
2018-01-11T23:56:25.264Z,15.83
2018-01-11T23:58:53.493Z,19.90
